Time;durP1;ratioP1;P1;durP2;ratioP2;P2;SDS_P1;SDS_P2;PMS_P1;PMS_P2;Temp;Humidity;BMP_temperature;BMP_pressure;BME280_temperature;BME280_humidity;BME280_pressure;Samples;Min_cycle;Max_cycle;Signal;HPM_P1;HPM_P2
2022/07/15 00:02:21;;;;;;;1.62;0.93;;;28.30;55.90;;;;;;10940367;32;20061;-71
2022/07/15 00:08:23;;;;;;;2.22;1.15;;;28.40;55.90;;;;;;10943944;32;20379;-72
2022/07/15 00:14:25;;;;;;;0.90;0.80;;;28.30;56.40;;;;;;10940708;32;20049;-71
2022/07/15 00:20:46;;;;;;;1.40;0.90;;;28.30;56.50;;;;;;10943432;32;20019;-71
2022/07/15 00:26:49;;;;;;;1.48;0.88;;;28.10;56.80;;;;;;10938946;32;20061;-71
2022/07/15 00:32:51;;;;;;;1.58;1.25;;;28.00;56.80;;;;;;10939244;32;20019;-72
2022/07/15 00:38:54;;;;;;;1.37;0.98;;;28.10;56.60;;;;;;10942860;32;20023;-71
2022/07/15 00:44:56;;;;;;;17.15;1.55;;;28.20;56.40;;;;;;10938360;32;20054;-71
2022/07/15 00:50:59;;;;;;;1.77;1.10;;;28.10;56.40;;;;;;10938392;32;20077;-71
2022/07/15 00:57:03;;;;;;;1.87;1.15;;;27.90;56.80;;;;;;10937783;32;20049;-71
2022/07/15 01:03:07;;;;;;;1.30;1.10;;;27.90;56.90;;;;;;10926832;32;20035;-71
2022/07/15 01:09:09;;;;;;;1.35;1.02;;;27.90;56.90;;;;;;10937802;32;20396;-71
2022/07/15 01:15:12;;;;;;;1.92;1.00;;;27.80;57.20;;;;;;10937819;32;20152;-71
2022/07/15 01:21:15;;;;;;;3.50;1.23;;;27.70;57.10;;;;;;10941764;32;20031;-72
2022/07/15 01:27:19;;;;;;;1.00;0.77;;;27.60;57.40;;;;;;10937594;32;20070;-72
2022/07/15 01:33:21;;;;;;;1.70;1.20;;;27.60;57.50;;;;;;10939033;32;20399;-72
2022/07/15 01:39:24;;;;;;;1.52;1.00;;;27.60;57.40;;;;;;10937065;32;20034;-72
2022/07/15 01:45:26;;;;;;;2.28;1.55;;;27.60;57.90;;;;;;10937084;32;20035;-72
2022/07/15 01:51:29;;;;;;;2.42;1.48;;;27.60;58.00;;;;;;10941246;32;20035;-72
2022/07/15 01:57:32;;;;;;;1.50;1.15;;;27.50;57.80;;;;;;10941033;32;20207;-72
2022/07/15 02:03:35;;;;;;;1.83;1.30;;;27.50;57.80;;;;;;10937012;32;20038;-72
2022/07/15 02:09:37;;;;;;;3.10;1.27;;;27.30;58.00;;;;;;10948021;32;20030;-72
2022/07/15 02:15:41;;;;;;;2.95;1.70;;;27.20;58.50;;;;;;10943610;32;20058;-72
2022/07/15 02:21:44;;;;;;;2.47;1.25;;;27.20;58.40;;;;;;10947687;32;20046;-72
2022/07/15 02:27:45;;;;;;;1.98;1.30;;;27.20;58.40;;;;;;10947369;32;20057;-71
2022/07/15 02:33:48;;;;;;;2.67;1.45;;;27.20;58.50;;;;;;10943074;32;20030;-71
2022/07/15 02:39:50;;;;;;;1.98;1.52;;;27.20;58.30;;;;;;10943132;32;20023;-71
2022/07/15 02:45:52;;;;;;;2.05;1.50;;;27.20;58.30;;;;;;10946751;32;20069;-71
2022/07/15 02:51:54;;;;;;;1.80;1.23;;;27.10;58.50;;;;;;10946583;32;20049;-71
2022/07/15 02:57:57;;;;;;;8.32;1.40;;;26.90;58.80;;;;;;10946231;32;20053;-72
2022/07/15 03:04:00;;;;;;;2.72;1.25;;;26.90;59.10;;;;;;10941879;32;20019;-71
2022/07/15 03:10:04;;;;;;;1.90;1.20;;;26.80;59.10;;;;;;10941815;32;20027;-71
2022/07/15 03:16:06;;;;;;;2.12;1.52;;;26.80;59.20;;;;;;10943867;32;20061;-71
2022/07/15 03:22:11;;;;;;;3.35;1.92;;;26.80;59.30;;;;;;10945497;32;20069;-72
2022/07/15 03:28:13;;;;;;;3.37;1.37;;;26.70;59.40;;;;;;10576679;32;11941341;-72
2022/07/15 03:34:15;;;;;;;6.85;1.83;;;26.80;59.50;;;;;;10865399;32;20044;-72
2022/07/15 03:40:17;;;;;;;4.32;1.23;;;26.80;59.70;;;;;;10862278;32;20317;-71
2022/07/15 03:46:19;;;;;;;4.22;2.47;;;26.80;59.70;;;;;;10862386;32;20110;-72
2022/07/15 03:52:22;;;;;;;2.62;1.80;;;26.70;59.80;;;;;;10861612;32;20038;-72
2022/07/15 03:58:25;;;;;;;2.17;1.20;;;26.70;59.80;;;;;;10927011;32;20026;-71
2022/07/15 04:04:27;;;;;;;2.22;1.12;;;26.70;59.90;;;;;;10943982;32;20019;-71
2022/07/15 04:10:29;;;;;;;1.87;1.50;;;26.70;59.90;;;;;;10943726;32;20081;-71
2022/07/15 04:16:32;;;;;;;1.90;1.25;;;26.60;59.70;;;;;;10941513;32;20019;-71
2022/07/15 04:22:40;;;;;;;8.15;2.05;;;26.60;59.50;;;;;;10942970;32;20023;-71
2022/07/15 04:28:42;;;;;;;2.62;1.75;;;26.70;59.50;;;;;;10959267;27;20042;-71
2022/07/15 04:34:46;;;;;;;6.80;2.12;;;26.70;59.40;;;;;;11018704;32;20022;-71
2022/07/15 04:40:48;;;;;;;2.62;1.95;;;26.70;59.30;;;;;;11014138;32;20030;-71
2022/07/15 04:46:52;;;;;;;4.90;1.83;;;26.70;59.40;;;;;;11014071;32;20026;-71
2022/07/15 04:52:58;;;;;;;2.35;1.85;;;26.60;60.10;;;;;;11018135;32;20022;-71
2022/07/15 04:59:00;;;;;;;4.32;1.50;;;26.60;60.60;;;;;;11017958;32;20048;-71
2022/07/15 05:05:03;;;;;;;2.97;1.77;;;26.50;60.80;;;;;;11014399;32;20357;-71
2022/07/15 05:11:05;;;;;;;1.85;1.45;;;26.50;60.70;;;;;;11017787;32;20060;-72
2022/07/15 05:17:08;;;;;;;1.92;1.30;;;26.60;60.60;;;;;;11013341;32;20030;-71
2022/07/15 05:23:11;;;;;;;2.60;1.30;;;26.70;60.60;;;;;;11013245;32;20052;-72
2022/07/15 05:29:13;;;;;;;1.80;1.52;;;26.70;60.50;;;;;;11016651;32;20307;-72
2022/07/15 05:36:06;;;;;;;1.95;1.48;;;26.80;60.70;;;;;;11002795;32;20040;-72
2022/07/15 05:42:08;;;;;;;4.95;1.55;;;26.90;60.50;;;;;;11017671;32;20220;-71
2022/07/15 05:48:11;;;;;;;2.25;1.75;;;27.00;60.70;;;;;;11024717;32;20018;-72
2022/07/15 05:54:15;;;;;;;1.90;1.20;;;27.00;60.80;;;;;;11021489;32;20033;-71
2022/07/15 06:00:18;;;;;;;3.97;1.95;;;27.10;60.80;;;;;;11020435;32;20027;-71
2022/07/15 06:06:21;;;;;;;4.00;2.25;;;27.30;60.40;;;;;;11010597;32;20053;-72
2022/07/15 06:12:24;;;;;;;2.25;1.30;;;27.50;60.60;;;;;;11007213;32;20026;-71
2022/07/15 06:18:26;;;;;;;3.05;1.42;;;27.60;60.70;;;;;;11019595;32;20038;-70
2022/07/15 06:24:29;;;;;;;2.92;1.87;;;27.80;60.20;;;;;;11018049;32;20092;-72
2022/07/15 06:30:31;;;;;;;2.03;1.48;;;27.90;59.80;;;;;;10984295;32;20387;-71
2022/07/15 06:36:34;;;;;;;1.87;1.35;;;28.00;59.40;;;;;;10967511;32;20049;-71
2022/07/15 06:42:38;;;;;;;1.45;1.12;;;28.20;59.10;;;;;;10979776;32;20038;-69
2022/07/15 06:48:41;;;;;;;1.30;1.05;;;28.30;58.70;;;;;;10966690;32;20053;-71
2022/07/15 06:54:44;;;;;;;4.68;1.30;;;28.40;58.70;;;;;;10979990;32;20060;-71
2022/07/15 07:00:46;;;;;;;1.08;0.73;;;28.50;58.60;;;;;;10979655;32;20022;-71
2022/07/15 07:06:49;;;;;;;1.10;1.00;;;28.70;58.20;;;;;;10996962;32;20061;-70
2022/07/15 07:12:51;;;;;;;1.92;0.70;;;28.80;58.10;;;;;;11003239;32;20402;-71
2022/07/15 07:18:53;;;;;;;1.48;1.00;;;28.90;57.80;;;;;;11003508;32;20066;-69
2022/07/15 07:24:55;;;;;;;2.05;1.27;;;29.00;57.50;;;;;;11016944;32;20064;-71
2022/07/15 07:30:58;;;;;;;3.78;1.60;;;29.10;57.30;;;;;;11017193;32;20026;-73
2022/07/15 07:37:00;;;;;;;1.73;1.25;;;29.30;57.20;;;;;;11020957;32;20014;-73
2022/07/15 07:43:04;;;;;;;1.10;0.88;;;29.40;57.60;;;;;;11020724;32;20417;-72
2022/07/15 07:49:14;;;;;;;2.62;1.45;;;29.40;57.70;;;;;;10981666;32;20037;-73
2022/07/15 07:55:16;;;;;;;2.15;1.48;;;29.60;57.70;;;;;;10981854;32;20035;-73
2022/07/15 08:01:18;;;;;;;2.60;1.35;;;29.60;58.40;;;;;;10981250;32;20026;-73
2022/07/15 08:07:21;;;;;;;1.85;1.20;;;29.60;58.40;;;;;;10981460;32;20030;-73
2022/07/15 08:13:31;;;;;;;1.48;1.08;;;29.70;57.90;;;;;;10967992;32;20030;-73
2022/07/15 08:19:34;;;;;;;1.50;1.17;;;29.90;57.60;;;;;;10981248;32;20031;-72
2022/07/15 08:25:38;;;;;;;2.17;1.10;;;30.00;57.20;;;;;;10981072;32;20018;-73
2022/07/15 08:31:40;;;;;;;2.72;1.40;;;30.00;57.40;;;;;;10982114;32;20342;-73
2022/07/15 08:37:42;;;;;;;2.35;1.42;;;30.20;57.20;;;;;;10980176;32;20018;-72
2022/07/15 08:43:45;;;;;;;1.98;1.50;;;30.30;56.80;;;;;;10980067;32;20056;-73
2022/07/15 08:49:50;;;;;;;2.85;1.48;;;30.40;56.30;;;;;;10981430;32;20057;-72
2022/07/15 08:55:52;;;;;;;4.47;1.90;;;30.50;56.00;;;;;;11012647;32;20034;-72
2022/07/15 09:01:54;;;;;;;2.58;1.60;;;30.70;55.60;;;;;;11018018;32;20014;-72
2022/07/15 09:08:06;;;;;;;1.70;1.17;;;30.80;55.40;;;;;;11017935;32;20389;-73
2022/07/15 09:14:13;;;;;;;3.40;2.03;;;30.90;55.30;;;;;;11017681;32;20061;-73
2022/07/15 09:20:16;;;;;;;2.83;1.37;;;31.10;55.00;;;;;;11017735;32;20304;-72
2022/07/15 09:26:57;;;;;;;8.20;2.33;;;31.20;54.50;;;;;;11003907;32;20031;-73
2022/07/15 09:39:23;;;;;;;4.28;2.05;;;31.40;53.50;;;;;;11017248;32;20021;-72
2022/07/15 09:45:25;;;;;;;3.70;1.80;;;31.50;53.20;;;;;;11017281;32;20065;-72
2022/07/15 09:51:27;;;;;;;3.45;1.67;;;31.60;52.90;;;;;;11017184;32;20049;-73
2022/07/15 09:57:36;;;;;;;3.00;1.98;;;31.80;52.30;;;;;;11016944;32;20069;-72
2022/07/15 10:03:39;;;;;;;5.12;1.65;;;32.10;51.90;;;;;;11017015;32;20026;-72
2022/07/15 10:09:56;;;;;;;1.67;1.35;;;32.10;51.40;;;;;;11017065;32;20449;-73
2022/07/15 10:16:20;;;;;;;2.73;1.57;;;32.10;51.60;;;;;;11003232;32;20026;-73
2022/07/15 10:22:40;;;;;;;4.07;2.47;;;32.30;51.20;;;;;;11016538;32;20022;-73
2022/07/15 10:28:53;;;;;;;4.03;1.98;;;32.60;50.90;;;;;;11007811;32;20034;-73
2022/07/15 10:34:55;;;;;;;3.67;2.28;;;32.50;50.70;;;;;;11009766;32;20021;-73
2022/07/15 10:41:21;;;;;;;2.25;1.85;;;32.40;51.40;;;;;;11022834;32;20102;-73
2022/07/15 10:47:24;;;;;;;4.60;2.28;;;32.30;51.60;;;;;;11022790;32;20511;-74
2022/07/15 10:53:30;;;;;;;2.55;1.67;;;32.40;51.40;;;;;;11022495;32;20049;-72
2022/07/15 11:00:05;;;;;;;2.20;2.00;;;32.20;51.90;;;;;;11021876;32;20030;-72
2022/07/15 11:06:07;;;;;;;9.63;2.17;;;32.50;51.10;;;;;;11008417;32;20025;-72
2022/07/15 11:12:11;;;;;;;3.10;2.12;;;33.00;49.90;;;;;;11008458;32;20330;-72
2022/07/15 11:18:13;;;;;;;5.32;2.03;;;33.60;48.60;;;;;;11021370;32;20292;-71
2022/07/15 11:24:16;;;;;;;3.55;2.12;;;33.90;48.00;;;;;;11021310;32;20037;-73
2022/07/15 11:30:19;;;;;;;1.73;1.12;;;34.10;47.40;;;;;;11020992;32;20018;-72
2022/07/15 11:36:41;;;;;;;14.65;1.90;;;34.40;46.60;;;;;;11020750;32;20040;-72
2022/07/15 11:49:08;;;;;;;1.62;1.30;;;34.90;45.20;;;;;;11021063;32;20037;-72
2022/07/15 11:55:11;;;;;;;2.15;1.87;;;35.10;43.90;;;;;;11003915;32;20045;-71
2022/07/15 12:01:19;;;;;;;1.33;0.93;;;35.20;43.10;;;;;;11020028;32;20041;-72
2022/07/15 12:07:21;;;;;;;1.23;0.82;;;35.30;43.00;;;;;;11019639;32;20346;-72
2022/07/15 12:13:23;;;;;;;2.65;1.33;;;35.40;41.90;;;;;;11019580;32;20018;-72
2022/07/15 12:19:28;;;;;;;1.10;0.90;;;35.40;40.90;;;;;;11019456;32;20044;-72
2022/07/15 12:25:31;;;;;;;1.55;0.90;;;35.60;41.00;;;;;;11019249;32;20005;-72
2022/07/15 12:31:35;;;;;;;1.77;1.27;;;35.60;39.70;;;;;;10995756;27;20057;-72
2022/07/15 12:37:40;;;;;;;2.22;1.10;;;35.70;39.60;;;;;;10980440;32;20026;-72
2022/07/15 12:43:52;;;;;;;2.58;1.30;;;35.60;39.20;;;;;;10979913;32;20391;-72
2022/07/15 12:49:54;;;;;;;1.58;0.82;;;35.80;38.70;;;;;;10979462;32;20022;-72
2022/07/15 12:56:52;;;;;;;0.80;0.75;;;36.00;38.40;;;;;;10979774;32;20056;-73
2022/07/15 13:03:09;;;;;;;2.12;0.85;;;35.90;37.90;;;;;;10975938;32;20031;-72
2022/07/15 13:09:12;;;;;;;1.45;0.85;;;35.80;37.20;;;;;;10979854;32;20027;-72
2022/07/15 13:15:14;;;;;;;1.90;1.27;;;35.70;37.10;;;;;;10979547;32;20049;-72
2022/07/15 13:21:16;;;;;;;2.22;1.33;;;35.60;36.70;;;;;;10979489;32;20045;-73
2022/07/15 13:27:19;;;;;;;1.52;1.40;;;35.70;36.80;;;;;;10979462;32;20394;-72
2022/07/15 13:33:22;;;;;;;2.15;1.40;;;35.70;37.00;;;;;;10972310;32;20026;-72
2022/07/15 13:39:25;;;;;;;2.60;1.33;;;35.80;37.10;;;;;;10941498;32;20335;-72
2022/07/15 13:45:27;;;;;;;1.65;1.08;;;35.80;37.10;;;;;;10941323;32;20027;-73
2022/07/15 13:51:29;;;;;;;2.85;1.30;;;35.70;37.10;;;;;;10941300;32;20069;-72
2022/07/15 13:57:31;;;;;;;1.62;1.15;;;35.60;37.50;;;;;;10941332;32;20363;-73
2022/07/15 14:03:33;;;;;;;3.00;0.90;;;35.60;37.50;;;;;;10946057;32;20053;-72
2022/07/15 14:09:36;;;;;;;3.95;1.52;;;35.60;37.50;;;;;;10948264;32;20019;-73
2022/07/15 14:15:39;;;;;;;1.17;0.95;;;35.60;37.40;;;;;;10948110;32;20050;-72
2022/07/15 14:21:41;;;;;;;2.65;1.20;;;35.60;37.60;;;;;;10949556;32;20022;-71
2022/07/15 14:27:43;;;;;;;4.43;1.10;;;35.60;37.30;;;;;;10966764;32;20061;-73
2022/07/15 14:33:45;;;;;;;2.15;1.27;;;35.50;37.70;;;;;;10957728;32;20383;-72
2022/07/15 14:39:47;;;;;;;4.05;0.93;;;35.40;37.80;;;;;;10966272;32;20304;-73
2022/07/15 14:45:49;;;;;;;3.33;1.05;;;35.50;37.90;;;;;;10970329;32;20351;-73
2022/07/15 14:51:51;;;;;;;2.65;0.82;;;35.50;38.00;;;;;;10970337;32;20034;-72
2022/07/15 14:57:53;;;;;;;3.35;1.40;;;35.30;38.40;;;;;;10982472;32;20045;-72
2022/07/15 15:03:55;;;;;;;2.17;1.62;;;35.10;38.40;;;;;;10982481;32;20444;-73
2022/07/15 15:09:57;;;;;;;4.72;1.12;;;34.80;38.80;;;;;;10951605;32;20058;-73
2022/07/15 15:16:22;;;;;;;1.23;0.80;;;34.80;38.90;;;;;;10932303;32;20434;-72
2022/07/15 15:22:24;;;;;;;2.08;1.10;;;34.80;39.20;;;;;;10945718;32;20053;-72
2022/07/15 15:28:25;;;;;;;2.55;1.17;;;34.80;39.50;;;;;;10945577;32;20053;-73
2022/07/15 15:34:29;;;;;;;3.28;1.15;;;35.00;39.40;;;;;;10945335;32;20050;-72
2022/07/15 15:40:32;;;;;;;4.53;1.50;;;35.20;39.40;;;;;;10945001;32;20054;-73
2022/07/15 15:47:11;;;;;;;1.70;1.15;;;35.40;39.20;;;;;;10940530;32;20023;-73
2022/07/15 15:53:13;;;;;;;2.75;1.65;;;35.60;39.30;;;;;;10944878;32;20015;-73
2022/07/15 15:59:15;;;;;;;1.50;1.05;;;35.60;39.30;;;;;;10944584;32;20022;-73
2022/07/15 16:05:18;;;;;;;2.42;1.40;;;35.70;39.30;;;;;;10944176;32;20031;-73
2022/07/15 16:11:21;;;;;;;3.00;1.77;;;35.70;39.40;;;;;;10943918;32;20061;-72
2022/07/15 16:17:23;;;;;;;2.15;1.33;;;35.60;39.20;;;;;;10947680;32;20061;-73
2022/07/15 16:23:25;;;;;;;1.52;1.20;;;35.50;39.40;;;;;;10943078;32;20046;-73
2022/07/15 16:29:27;;;;;;;2.17;1.23;;;35.40;39.50;;;;;;10939147;32;20046;-73
2022/07/15 16:35:31;;;;;;;6.50;1.73;;;35.30;39.50;;;;;;10943215;32;20018;-72
2022/07/15 16:41:33;;;;;;;2.47;1.58;;;35.40;39.40;;;;;;10942919;32;20300;-73
2022/07/15 16:47:35;;;;;;;3.62;0.90;;;35.50;39.20;;;;;;10942817;32;20015;-73
2022/07/15 16:53:37;;;;;;;3.30;1.65;;;35.50;39.20;;;;;;10942473;32;20108;-73
2022/07/15 16:59:41;;;;;;;3.30;1.75;;;35.60;39.10;;;;;;10942375;32;20015;-73
2022/07/15 17:05:43;;;;;;;5.07;1.52;;;35.50;38.80;;;;;;10942450;32;20027;-73
2022/07/15 17:11:45;;;;;;;2.53;1.62;;;35.50;38.80;;;;;;10942005;32;20049;-73
2022/07/15 17:17:47;;;;;;;4.00;1.80;;;35.40;39.20;;;;;;10941789;32;20027;-72
2022/07/15 17:23:49;;;;;;;4.85;1.27;;;35.40;39.10;;;;;;10941698;32;20035;-72
2022/07/15 17:29:51;;;;;;;3.85;1.55;;;35.40;39.10;;;;;;10927910;32;20347;-73
2022/07/15 17:35:53;;;;;;;4.62;1.27;;;35.40;39.30;;;;;;10944815;32;20023;-73
2022/07/15 17:41:59;;;;;;;4.40;2.08;;;35.30;39.40;;;;;;10949887;32;20054;-73
2022/07/15 17:48:03;;;;;;;2.15;1.37;;;35.20;39.50;;;;;;10948873;32;20323;-73
2022/07/15 17:54:25;;;;;;;3.45;1.40;;;35.30;39.60;;;;;;10935090;32;20046;-73
2022/07/15 18:00:28;;;;;;;2.40;1.50;;;35.40;39.40;;;;;;10948498;32;20414;-73
2022/07/15 18:06:30;;;;;;;3.78;1.17;;;35.90;39.20;;;;;;10935008;32;20038;-73
2022/07/15 18:12:35;;;;;;;1.02;0.82;;;36.30;38.60;;;;;;10948295;32;20054;-73
2022/07/15 18:18:37;;;;;;;1.98;1.50;;;35.80;39.40;;;;;;10934430;32;20022;-73
2022/07/15 18:24:39;;;;;;;2.62;1.02;;;35.10;40.30;;;;;;10934136;32;20046;-73
2022/07/15 18:30:41;;;;;;;2.35;1.40;;;34.60;41.10;;;;;;10947756;32;20430;-73
2022/07/15 18:36:44;;;;;;;4.85;1.37;;;34.30;41.40;;;;;;10947347;32;20362;-73
2022/07/15 18:42:47;;;;;;;4.37;1.33;;;34.00;41.90;;;;;;10947051;32;20022;-73
2022/07/15 18:48:51;;;;;;;1.05;0.73;;;33.80;42.20;;;;;;10946374;32;20037;-73
2022/07/15 18:54:53;;;;;;;2.17;0.90;;;33.60;42.50;;;;;;10946699;32;20031;-73
2022/07/15 19:00:56;;;;;;;2.97;1.25;;;33.40;42.80;;;;;;10946350;32;20395;-73
2022/07/15 19:06:58;;;;;;;4.65;1.42;;;33.30;43.10;;;;;;10945427;32;20046;-73
2022/07/15 19:13:00;;;;;;;1.00;0.65;;;33.00;43.50;;;;;;10963513;32;20053;-73
2022/07/15 19:19:02;;;;;;;3.83;0.93;;;32.90;44.00;;;;;;10945808;32;20057;-73
2022/07/15 19:25:06;;;;;;;0.93;0.75;;;32.80;44.30;;;;;;10945751;32;20015;-73
2022/07/15 19:31:08;;;;;;;0.73;0.50;;;32.80;44.40;;;;;;10945407;32;20022;-73
2022/07/15 19:37:12;;;;;;;2.05;0.62;;;32.70;44.60;;;;;;10945153;32;20057;-73
2022/07/15 19:43:14;;;;;;;0.90;0.68;;;32.60;44.80;;;;;;10945006;32;20023;-73
2022/07/15 19:49:16;;;;;;;1.90;0.80;;;32.50;45.00;;;;;;10944889;32;20038;-73
2022/07/15 19:55:18;;;;;;;3.28;1.05;;;32.40;45.20;;;;;;10944761;32;20026;-73
2022/07/15 20:01:21;;;;;;;1.67;0.82;;;32.30;45.50;;;;;;10943576;32;20077;-73
2022/07/15 20:07:23;;;;;;;1.08;0.73;;;32.30;45.60;;;;;;10944259;32;20023;-73
2022/07/15 20:13:25;;;;;;;1.00;0.60;;;32.20;45.90;;;;;;10943668;32;20039;-73
2022/07/15 20:19:35;;;;;;;2.97;1.70;;;32.20;46.20;;;;;;10943789;32;20018;-73
2022/07/15 20:25:37;;;;;;;2.35;0.80;;;32.10;46.50;;;;;;10943647;32;20433;-73
2022/07/15 20:31:58;;;;;;;2.92;1.20;;;32.00;46.90;;;;;;10597246;32;12252614;-72
2022/07/15 20:38:01;;;;;;;1.77;0.88;;;31.80;48.10;;;;;;10970663;32;20022;-71
2022/07/15 20:44:05;;;;;;;1.87;0.90;;;31.60;49.20;;;;;;10971199;32;20038;-72
2022/07/15 20:50:08;;;;;;;0.75;0.57;;;31.50;49.60;;;;;;10970249;32;20058;-72
2022/07/15 20:56:10;;;;;;;1.35;0.65;;;31.40;50.00;;;;;;11000236;32;20030;-72
2022/07/15 21:02:13;;;;;;;1.40;1.00;;;31.40;50.10;;;;;;11011726;32;20041;-72
2022/07/15 21:08:16;;;;;;;2.42;0.68;;;31.40;50.40;;;;;;11011513;32;20022;-72
2022/07/15 21:14:19;;;;;;;2.25;1.25;;;31.30;50.80;;;;;;11011482;32;20341;-72
2022/07/15 21:20:21;;;;;;;1.52;0.73;;;31.20;51.40;;;;;;10997613;32;20018;-72
2022/07/15 21:33:01;;;;;;;1.95;0.73;;;31.10;52.30;;;;;;10893481;32;20406;-72
2022/07/15 21:39:03;;;;;;;0.88;0.52;;;31.10;52.40;;;;;;10886531;32;20388;-72
2022/07/15 21:45:18;;;;;;;2.42;1.00;;;31.00;52.60;;;;;;10868925;32;20031;-72
2022/07/15 21:51:20;;;;;;;0.90;0.32;;;31.00;52.50;;;;;;10867244;32;20039;-71
2022/07/15 21:57:47;;;;;;;1.23;0.80;;;30.90;52.50;;;;;;10863598;32;20046;-71
2022/07/15 22:03:50;;;;;;;1.27;0.88;;;30.90;52.60;;;;;;10900105;32;20026;-71
2022/07/15 22:09:53;;;;;;;0.82;0.70;;;30.90;52.70;;;;;;10979764;32;20065;-71
2022/07/15 22:15:56;;;;;;;1.90;1.17;;;30.80;53.00;;;;;;10983621;32;20053;-71
2022/07/15 22:21:59;;;;;;;0.68;0.68;;;30.80;53.30;;;;;;10980324;32;20018;-72
2022/07/15 22:28:01;;;;;;;0.85;0.75;;;30.80;53.50;;;;;;10983211;32;20022;-72
2022/07/15 22:34:03;;;;;;;1.58;0.90;;;30.60;53.80;;;;;;10983111;32;20018;-70
2022/07/15 22:40:06;;;;;;;2.08;0.95;;;30.60;54.30;;;;;;10978607;32;20046;-71
2022/07/15 22:46:09;;;;;;;1.00;0.65;;;30.50;54.10;;;;;;10982497;32;20027;-71
2022/07/15 22:52:12;;;;;;;3.03;0.75;;;30.50;54.40;;;;;;10981747;32;20060;-71
2022/07/15 22:58:14;;;;;;;5.32;1.33;;;30.40;55.40;;;;;;10982334;32;20023;-71
2022/07/15 23:04:17;;;;;;;3.00;1.60;;;30.30;56.00;;;;;;10979115;32;20023;-71
2022/07/15 23:10:19;;;;;;;4.00;2.00;;;30.30;55.90;;;;;;10977798;32;20053;-71
2022/07/15 23:16:21;;;;;;;6.32;2.35;;;30.20;56.00;;;;;;10978437;32;20026;-71
2022/07/15 23:22:23;;;;;;;3.05;2.10;;;30.10;56.20;;;;;;10978893;32;20043;-70
2022/07/15 23:28:25;;;;;;;6.18;2.87;;;30.00;56.80;;;;;;10979656;32;20030;-70
2022/07/15 23:34:27;;;;;;;6.12;3.03;;;29.90;57.40;;;;;;10977601;32;20389;-71
2022/07/15 23:40:29;;;;;;;3.67;2.83;;;29.80;57.90;;;;;;10980829;32;20014;-71
2022/07/15 23:46:32;;;;;;;7.55;3.78;;;29.70;59.30;;;;;;10977857;32;20023;-69
2022/07/15 23:52:34;;;;;;;9.25;3.35;;;29.60;59.90;;;;;;10975771;32;20031;-71
2022/07/15 23:58:36;;;;;;;4.82;2.85;;;29.30;61.40;;;;;;10975687;32;20425;-71
